Shokokon, Illinois
Current Conditions -  °F | °C
As of 8:53 PM on Friday 19 Dec 2014 (Local Time) from KBRL Reporting Station
Overcast Overcast  
Wind Chill: 26°   Ceiling: 4800
Heat Index: 31°   Visibility: 9mi
Dew Point: 24°   Wind: 5mph
Humidity: 76%   Direction: 150°SSE
Pressure: 30.25"   Gusts: NA
Location:  40.7646°N, 91.0498°W
Report Text: KBRL 200253Z AUTO 15004KT 9SM OVC048 M01/M04 A3025 RMK AO2 SLP252 T10061044 56002
Loading
Personal Weather Stations






























Interactive Weather Map New forecast layout! Learn more

10-Day Weather Forecast

Advertisements
Track Severe Weather on mobile